KFAT/FAT METAR and TAF weather

Enter ICAO airport designator
Station Type Date Time Source
KFAT METAR 2021/09/27 06:53 UTC NOAA

KFAT 270653Z 30006KT 10SM CLR 21/12 A2998 RMK AO2 SLP149 T02110122


Station Type Date Time Source
KFAT Decoded METAR 2021/09/27 06:53 UTC NOAA

FRESNO AIR TERMINAL, CA, United States (KFAT) 36-47N 119-43W 104M
Sep 27, 2021 - 02:53 AM EDT / 2021.09.27 0653 UTC
Wind: from the WNW (300 degrees) at 7 MPH (6 KT):0
Visibility: 10 mile(s):0
Sky conditions: clear
Temperature: 70.0 F (21.1 C)
Dew Point: 54.0 F (12.2 C)
Relative Humidity: 56%
Pressure (altimeter): 29.98 in. Hg (1015 hPa)
ob: KFAT 270653Z 30006KT 10SM CLR 21/12 A2998 RMK AO2 SLP149 T02110122
cycle: 7

Station Type Date Time Source
KFAT TAF 2021/09/27 06:36 UTC NOAA

TAF KFAT 270535Z 2706/2806 28004KT P6SM SKC
FM280000 31009KT P6SM SCT250
FM280400 31012G18KT P6SM FEW050

Example: see airport list